createdAt,value
2023-01-11T00:02:29.384Z,3
2023-01-11T00:35:32.773Z,3
2023-01-11T01:04:14.459Z,3
2023-01-11T01:32:55.855Z,3
2023-01-11T02:01:45.953Z,1
2023-01-11T02:30:14.856Z,2
2023-01-11T02:59:12.313Z,3
2023-01-11T03:28:00.350Z,3
2023-01-11T03:56:47.482Z,1
2023-01-11T04:25:34.516Z,1
2023-01-11T04:54:21.250Z,4
2023-01-11T05:23:06.347Z,1
2023-01-11T05:51:52.055Z,1
2023-01-11T06:20:38.565Z,1
2023-01-11T06:49:30.542Z,1
2023-01-11T07:18:16.414Z,1
2023-01-11T07:46:54.575Z,1
2023-01-11T08:15:32.517Z,3
2023-01-11T08:44:14.968Z,1
2023-01-11T09:12:41.472Z,3
2023-01-11T09:41:08.869Z,1
2023-01-11T10:38:05.641Z,4
2023-01-11T11:06:27.806Z,4
2023-01-11T11:35:05.806Z,3
2023-01-11T12:03:38.197Z,6
2023-01-11T12:32:21.290Z,7
2023-01-11T13:00:57.130Z,5
2023-01-11T13:29:23.041Z,4
2023-01-11T13:57:45.590Z,4
2023-01-11T14:26:18.922Z,6
2023-01-11T14:54:39.688Z,5
2023-01-11T15:23:10.121Z,4
2023-01-11T15:51:38.823Z,6
2023-01-11T16:19:59.113Z,4
2023-01-11T16:48:31.488Z,8
2023-01-11T17:17:15.176Z,7
2023-01-11T17:45:41.093Z,7
2023-01-11T18:14:11.873Z,6
2023-01-11T18:42:41.551Z,7
2023-01-11T19:10:49.508Z,8
2023-01-11T19:39:26.949Z,8
2023-01-11T20:07:57.598Z,21
2023-01-11T20:36:35.459Z,8
2023-01-11T21:05:20.869Z,10
2023-01-11T21:33:47.523Z,9
2023-01-11T22:02:20.642Z,7
2023-01-11T22:30:59.872Z,6
2023-01-11T22:59:26.434Z,6
2023-01-11T23:28:13.684Z,6
2023-01-11T23:56:43.925Z,7
